Greenwood, VA (22943)

12:13 AM EDT on September 24, 2014 (GMT -0400)
Pollak Vineyards | Change Station
CLOSE
Current Station
Personal Weather Station
Location: Greenwood, VA
Elevation: 817 ft
Nearby Weather Stations

Elev 817 ft 38.03 °N, 78.79 °W | Updated 2 minutes ago

Partly Cloudy
Partly Cloudy
51.2 °F
Feels Like 51.2 °F
N
0.0
Wind Variable Wind from NNE
Gusts 0.0 mph

Today
High -- | Low -- °F
--% Chance of Precip.
Yesterday
High -- | Low -- °F
Precip. -- in
7:04 AM 7:09 PM
Waning Crescent, 0% visible
Pressure 30.39 in
Visibility 10.0 miles
Clouds Clear
Dew Point 49 °F
Humidity 93%
Rainfall 0.00 in
Snow Depth Not available.
UV 0 out of 12
Pollen 5.00 out of 12
Air Quality Not available.
Flu Activity Not available.
METAR KSHD 240355Z AUTO 35004KT 10SM CLR 13/06 A3039 RMK AO2 T01290059

More Conditions Fewer Conditions

Pressure 30.39 in
Visibility 10.0 miles
Clouds Clear
Dew Point 49 °F
Humidity 93%
Rainfall 0.00 in
Snow Depth Not available.
UV 0 out of 12
Pollen 5.00 out of 12
Air Quality Not available.
Flu Activity Not available.
METAR KSHD 240355Z AUTO 35004KT 10SM CLR 13/06 A3039 RMK AO2 T01290059

More Conditions Fewer Conditions

10-Day Weather Forecast

Almanac

Astronomy

Sep. 24, 2014 Rise Set
Actual Time 7:04 AM EDT 7:09 PM EDT
Civil Twilight 6:38 AM EDT 7:35 PM EDT
Nautical Twilight 6:07 AM EDT 8:05 PM EDT
Astronomical Twilight 5:36 AM EDT 8:36 PM EDT
Moon 7:22 AM EDT 7:19 PM EDT
Length of Visible Light 12h 56m
Length of Day
12h 04m
Tomorrow will be 2m 26s shorter.
Waning Crescent, 0% of the Moon is Illuminated
Today
Waning Crescent
Sep 24
New
Oct 1
First Quarter
Oct 8
Full
Oct 15
Last Quarter

Yesterday's Extremes

State Highs State Lows

Community

WunderPhotos

Upload Photos

1,755,890 photos uploaded!

WunderBlogs® & News

Nearby

Snow Depth

Station Depth Elevation
No new snow has been reported.

Earthquake Activity

City Distance Mag. Time & Date
No recent earthquake activity has been reported nearby.
Minimum magnitude displayed is 2.5.

Coastal Water Temperatures

Place Temperature
No Stations Reporting

Nearby Weather Stations